sensor_id;sensor_type;location;lat;lon;timestamp;pressure;altitude;pressure_sealevel;temperature;humidity
46638;BME280;32365;46.938;7.390;2023-06-14T06:46:33;94821.97;;;17.60;42.99
46638;BME280;32365;46.938;7.390;2023-06-14T06:49:00;94820.31;;;17.83;39.56
46638;BME280;32365;46.938;7.390;2023-06-14T06:51:26;94823.00;;;18.11;40.40
46638;BME280;32365;46.938;7.390;2023-06-14T06:53:53;94825.56;;;18.44;39.84
46638;BME280;32365;46.938;7.390;2023-06-14T06:56:20;94819.81;;;17.81;39.63
46638;BME280;32365;46.938;7.390;2023-06-14T06:58:48;94831.16;;;17.77;38.77
46638;BME280;32365;46.938;7.390;2023-06-14T07:01:14;94824.66;;;18.35;38.60
46638;BME280;32365;46.938;7.390;2023-06-14T07:03:42;94825.75;;;18.62;37.90
46638;BME280;32365;46.938;7.390;2023-06-14T07:06:09;94830.00;;;18.72;38.28
46638;BME280;32365;46.938;7.390;2023-06-14T07:08:35;94821.88;;;18.59;37.55
46638;BME280;32365;46.938;7.390;2023-06-14T07:11:03;94828.56;;;18.80;36.70
46638;BME280;32365;46.938;7.390;2023-06-14T07:13:30;94830.09;;;18.67;36.45
46638;BME280;32365;46.938;7.390;2023-06-14T07:15:58;94840.88;;;18.93;37.00
46638;BME280;32365;46.938;7.390;2023-06-14T07:18:25;94840.78;;;19.12;38.03
46638;BME280;32365;46.938;7.390;2023-06-14T07:20:53;94833.22;;;19.33;37.06
46638;BME280;32365;46.938;7.390;2023-06-14T07:23:19;94837.97;;;19.31;35.65
46638;BME280;32365;46.938;7.390;2023-06-14T07:25:46;94829.00;;;19.46;36.07
46638;BME280;32365;46.938;7.390;2023-06-14T07:28:13;94837.25;;;19.53;36.04
46638;BME280;32365;46.938;7.390;2023-06-14T07:30:39;94830.97;;;19.41;36.98
46638;BME280;32365;46.938;7.390;2023-06-14T07:33:06;94831.63;;;19.23;35.69
46638;BME280;32365;46.938;7.390;2023-06-14T07:35:33;94849.47;;;19.58;37.39
46638;BME280;32365;46.938;7.390;2023-06-14T07:38:01;94825.16;;;19.66;36.96
46638;BME280;32365;46.938;7.390;2023-06-14T07:40:28;94839.75;;;19.36;38.56
46638;BME280;32365;46.938;7.390;2023-06-14T07:42:54;94844.56;;;19.43;36.51
46638;BME280;32365;46.938;7.390;2023-06-14T07:45:21;94841.28;;;19.37;37.54
46638;BME280;32365;46.938;7.390;2023-06-14T07:47:47;94846.25;;;19.25;37.39
46638;BME280;32365;46.938;7.390;2023-06-14T07:50:14;94844.28;;;19.67;36.60
46638;BME280;32365;46.938;7.390;2023-06-14T07:52:40;94842.88;;;20.06;35.44
46638;BME280;32365;46.938;7.390;2023-06-14T07:55:08;94846.69;;;20.32;35.02
46638;BME280;32365;46.938;7.390;2023-06-14T07:57:35;94843.84;;;20.19;37.08
46638;BME280;32365;46.938;7.390;2023-06-14T08:00:02;94848.41;;;20.36;37.31
46638;BME280;32365;46.938;7.390;2023-06-14T08:02:31;94844.00;;;20.14;36.02
46638;BME280;32365;46.938;7.390;2023-06-14T08:04:57;94838.78;;;20.63;33.01
46638;BME280;32365;46.938;7.390;2023-06-14T08:07:24;94834.53;;;20.94;34.29
46638;BME280;32365;46.938;7.390;2023-06-14T08:09:50;94840.41;;;20.90;35.61
46638;BME280;32365;46.938;7.390;2023-06-14T08:12:18;94842.44;;;20.94;33.46
46638;BME280;32365;46.938;7.390;2023-06-14T08:14:44;94842.41;;;20.85;35.38
46638;BME280;32365;46.938;7.390;2023-06-14T08:17:11;94838.75;;;21.56;32.99
46638;BME280;32365;46.938;7.390;2023-06-14T08:19:38;94844.66;;;21.62;33.41
46638;BME280;32365;46.938;7.390;2023-06-14T08:22:05;94841.28;;;21.70;30.72
46638;BME280;32365;46.938;7.390;2023-06-14T08:24:31;94834.13;;;21.35;31.90
46638;BME280;32365;46.938;7.390;2023-06-14T08:26:58;94841.69;;;21.98;34.88
46638;BME280;32365;46.938;7.390;2023-06-14T08:29:27;94839.38;;;22.44;33.34
46638;BME280;32365;46.938;7.390;2023-06-14T08:31:56;94847.03;;;22.67;32.88
46638;BME280;32365;46.938;7.390;2023-06-14T08:34:22;94837.41;;;22.33;32.98
46638;BME280;32365;46.938;7.390;2023-06-14T08:36:49;94850.81;;;22.87;30.57
46638;BME280;32365;46.938;7.390;2023-06-14T08:39:16;94842.94;;;22.40;31.58
46638;BME280;32365;46.938;7.390;2023-06-14T08:41:42;94842.03;;;22.44;31.18
46638;BME280;32365;46.938;7.390;2023-06-14T08:44:09;94840.59;;;22.56;31.11
46638;BME280;32365;46.938;7.390;2023-06-14T08:46:37;94842.91;;;23.93;29.67
46638;BME280;32365;46.938;7.390;2023-06-14T08:49:03;94839.97;;;25.56;27.30
46638;BME280;32365;46.938;7.390;2023-06-14T08:51:32;94839.38;;;25.22;27.85
46638;BME280;32365;46.938;7.390;2023-06-14T08:54:00;94846.13;;;27.37;24.29
46638;BME280;32365;46.938;7.390;2023-06-14T08:56:27;94839.56;;;28.09;23.71
46638;BME280;32365;46.938;7.390;2023-06-14T08:58:55;94848.34;;;25.87;25.64
46638;BME280;32365;46.938;7.390;2023-06-14T09:01:22;94843.28;;;26.26;26.86
46638;BME280;32365;46.938;7.390;2023-06-14T09:03:50;94848.50;;;27.77;25.82
46638;BME280;32365;46.938;7.390;2023-06-14T09:06:17;94854.56;;;28.67;24.26
46638;BME280;32365;46.938;7.390;2023-06-14T09:08:45;94853.09;;;27.80;24.23
46638;BME280;32365;46.938;7.390;2023-06-14T09:11:13;94856.00;;;28.15;24.17
46638;BME280;32365;46.938;7.390;2023-06-14T09:13:41;94848.88;;;27.40;25.65
46638;BME280;32365;46.938;7.390;2023-06-14T09:16:08;94855.38;;;29.52;23.19
46638;BME280;32365;46.938;7.390;2023-06-14T09:18:35;94847.72;;;28.20;23.32
46638;BME280;32365;46.938;7.390;2023-06-14T09:21:05;94853.78;;;27.38;26.85
46638;BME280;32365;46.938;7.390;2023-06-14T09:23:33;94849.56;;;28.62;23.46
46638;BME280;32365;46.938;7.390;2023-06-14T09:26:02;94843.53;;;27.20;24.69
46638;BME280;32365;46.938;7.390;2023-06-14T09:28:32;94847.41;;;26.55;27.65
46638;BME280;32365;46.938;7.390;2023-06-14T09:30:58;94848.25;;;28.52;23.12
46638;BME280;32365;46.938;7.390;2023-06-14T09:33:25;94835.22;;;30.75;20.98
46638;BME280;32365;46.938;7.390;2023-06-14T09:35:54;94836.59;;;29.75;22.49
46638;BME280;32365;46.938;7.390;2023-06-14T09:38:22;94838.97;;;30.22;20.80
46638;BME280;32365;46.938;7.390;2023-06-14T09:40:49;94843.06;;;28.13;23.37
46638;BME280;32365;46.938;7.390;2023-06-14T09:43:17;94844.00;;;29.93;22.02
46638;BME280;32365;46.938;7.390;2023-06-14T09:45:44;94845.84;;;29.51;21.47
46638;BME280;32365;46.938;7.390;2023-06-14T09:48:11;94852.00;;;28.24;22.35
46638;BME280;32365;46.938;7.390;2023-06-14T09:50:44;94851.16;;;30.64;21.53
46638;BME280;32365;46.938;7.390;2023-06-14T09:53:11;94849.06;;;31.66;20.59
46638;BME280;32365;46.938;7.390;2023-06-14T09:55:41;94849.84;;;30.92;20.15
46638;BME280;32365;46.938;7.390;2023-06-14T09:58:09;94848.84;;;32.61;18.83
46638;BME280;32365;46.938;7.390;2023-06-14T10:00:39;94848.09;;;32.24;20.69
46638;BME280;32365;46.938;7.390;2023-06-14T10:03:11;94855.56;;;29.09;23.83
46638;BME280;32365;46.938;7.390;2023-06-14T10:05:42;94843.16;;;31.27;21.57
46638;BME280;32365;46.938;7.390;2023-06-14T10:08:12;94846.59;;;30.65;21.38
46638;BME280;32365;46.938;7.390;2023-06-14T10:10:42;94852.38;;;30.70;22.25
46638;BME280;32365;46.938;7.390;2023-06-14T10:13:09;94853.44;;;27.79;24.97
46638;BME280;32365;46.938;7.390;2023-06-14T10:15:52;94842.19;;;29.32;23.53
46638;BME280;32365;46.938;7.390;2023-06-14T10:18:28;94843.31;;;28.27;23.13
46638;BME280;32365;46.938;7.390;2023-06-14T10:21:03;94838.97;;;31.33;22.11
46638;BME280;32365;46.938;7.390;2023-06-14T10:23:37;94833.78;;;29.95;23.58
46638;BME280;32365;46.938;7.390;2023-06-14T10:26:05;94835.84;;;30.58;21.02
46638;BME280;32365;46.938;7.390;2023-06-14T10:28:31;94838.69;;;31.57;19.83
46638;BME280;32365;46.938;7.390;2023-06-14T10:31:03;94839.25;;;32.09;20.19
46638;BME280;32365;46.938;7.390;2023-06-14T10:33:30;94836.88;;;30.98;20.91
46638;BME280;32365;46.938;7.390;2023-06-14T10:36:09;94830.22;;;29.87;21.65
46638;BME280;32365;46.938;7.390;2023-06-14T10:38:36;94833.44;;;30.97;20.43
46638;BME280;32365;46.938;7.390;2023-06-14T10:41:05;94834.34;;;31.16;22.51
46638;BME280;32365;46.938;7.390;2023-06-14T10:43:33;94831.94;;;30.48;22.17
46638;BME280;32365;46.938;7.390;2023-06-14T10:46:16;94822.19;;;30.66;20.46
46638;BME280;32365;46.938;7.390;2023-06-14T10:48:43;94830.94;;;29.46;21.60
46638;BME280;32365;46.938;7.390;2023-06-14T10:51:17;94829.25;;;28.77;23.04
46638;BME280;32365;46.938;7.390;2023-06-14T10:53:46;94820.31;;;30.74;20.59
46638;BME280;32365;46.938;7.390;2023-06-14T10:56:27;94828.59;;;32.49;19.03
46638;BME280;32365;46.938;7.390;2023-06-14T10:58:54;94818.75;;;30.66;19.80
46638;BME280;32365;46.938;7.390;2023-06-14T11:01:31;94822.13;;;29.42;21.58
46638;BME280;32365;46.938;7.390;2023-06-14T11:04:06;94822.97;;;30.70;22.98
46638;BME280;32365;46.938;7.390;2023-06-14T11:06:45;94823.97;;;32.17;19.52
46638;BME280;32365;46.938;7.390;2023-06-14T11:09:44;94821.66;;;31.09;19.56
46638;BME280;32365;46.938;7.390;2023-06-14T11:12:15;94829.97;;;30.90;22.23
46638;BME280;32365;46.938;7.390;2023-06-14T11:14:45;94832.53;;;31.42;20.27
46638;BME280;32365;46.938;7.390;2023-06-14T11:17:12;94820.78;;;33.35;18.33
46638;BME280;32365;46.938;7.390;2023-06-14T11:19:39;94821.78;;;33.70;18.50
46638;BME280;32365;46.938;7.390;2023-06-14T11:22:06;94823.88;;;33.19;17.68
46638;BME280;32365;46.938;7.390;2023-06-14T11:24:33;94834.28;;;32.15;18.68
46638;BME280;32365;46.938;7.390;2023-06-14T11:26:59;94828.91;;;32.01;20.33
46638;BME280;32365;46.938;7.390;2023-06-14T11:29:29;94819.91;;;33.59;18.22
46638;BME280;32365;46.938;7.390;2023-06-14T11:31:55;94828.53;;;32.75;20.66
46638;BME280;32365;46.938;7.390;2023-06-14T11:34:22;94826.13;;;31.57;17.85
46638;BME280;32365;46.938;7.390;2023-06-14T11:36:48;94819.53;;;34.74;16.44
46638;BME280;32365;46.938;7.390;2023-06-14T11:39:15;94821.50;;;34.20;16.21
46638;BME280;32365;46.938;7.390;2023-06-14T11:41:43;94816.44;;;33.66;17.75
46638;BME280;32365;46.938;7.390;2023-06-14T11:44:10;94821.56;;;34.62;16.06
46638;BME280;32365;46.938;7.390;2023-06-14T11:46:38;94812.19;;;35.54;17.12
46638;BME280;32365;46.938;7.390;2023-06-14T11:49:06;94806.72;;;34.47;16.32
46638;BME280;32365;46.938;7.390;2023-06-14T11:51:35;94816.28;;;32.74;18.04
46638;BME280;32365;46.938;7.390;2023-06-14T11:54:02;94812.97;;;33.69;15.62
46638;BME280;32365;46.938;7.390;2023-06-14T11:56:29;94813.81;;;33.55;18.42
46638;BME280;32365;46.938;7.390;2023-06-14T11:58:56;94807.19;;;33.78;16.88
46638;BME280;32365;46.938;7.390;2023-06-14T12:01:23;94804.03;;;34.92;15.84
46638;BME280;32365;46.938;7.390;2023-06-14T12:03:53;94811.28;;;34.01;16.38
46638;BME280;32365;46.938;7.390;2023-06-14T12:06:26;94810.16;;;32.01;17.10
46638;BME280;32365;46.938;7.390;2023-06-14T12:08:55;94807.81;;;34.04;16.93
46638;BME280;32365;46.938;7.390;2023-06-14T12:11:22;94815.53;;;32.01;20.80
46638;BME280;32365;46.938;7.390;2023-06-14T12:13:49;94815.56;;;32.44;17.03
46638;BME280;32365;46.938;7.390;2023-06-14T12:16:15;94809.63;;;33.47;15.50
46638;BME280;32365;46.938;7.390;2023-06-14T12:18:42;94809.06;;;32.49;17.47
46638;BME280;32365;46.938;7.390;2023-06-14T12:21:10;94806.16;;;31.40;17.81
46638;BME280;32365;46.938;7.390;2023-06-14T12:23:42;94806.94;;;31.48;18.35
46638;BME280;32365;46.938;7.390;2023-06-14T12:26:09;94810.59;;;32.35;17.88
46638;BME280;32365;46.938;7.390;2023-06-14T12:28:35;94798.09;;;33.54;16.96
46638;BME280;32365;46.938;7.390;2023-06-14T12:31:02;94799.94;;;34.77;15.64
46638;BME280;32365;46.938;7.390;2023-06-14T12:33:28;94802.25;;;34.29;15.99
46638;BME280;32365;46.938;7.390;2023-06-14T12:35:55;94783.63;;;33.26;15.76
46638;BME280;32365;46.938;7.390;2023-06-14T12:38:24;94799.28;;;30.69;17.80
46638;BME280;32365;46.938;7.390;2023-06-14T12:40:50;94804.59;;;31.28;18.16
46638;BME280;32365;46.938;7.390;2023-06-14T12:43:17;94805.06;;;31.48;19.90
46638;BME280;32365;46.938;7.390;2023-06-14T12:45:44;94794.91;;;32.37;16.39
46638;BME280;32365;46.938;7.390;2023-06-14T12:48:10;94796.44;;;30.47;18.43
46638;BME280;32365;46.938;7.390;2023-06-14T12:50:37;94794.38;;;29.47;18.60
46638;BME280;32365;46.938;7.390;2023-06-14T12:53:04;94798.56;;;31.50;18.38
46638;BME280;32365;46.938;7.390;2023-06-14T12:55:32;94794.63;;;33.57;15.97
46638;BME280;32365;46.938;7.390;2023-06-14T12:57:59;94793.53;;;33.47;16.01
46638;BME280;32365;46.938;7.390;2023-06-14T13:00:25;94795.94;;;33.16;16.20
46638;BME280;32365;46.938;7.390;2023-06-14T13:02:52;94792.06;;;33.35;16.32
46638;BME280;32365;46.938;7.390;2023-06-14T13:05:18;94803.25;;;32.97;17.48
46638;BME280;32365;46.938;7.390;2023-06-14T13:07:45;94795.00;;;34.22;15.99
46638;BME280;32365;46.938;7.390;2023-06-14T13:10:11;94800.63;;;32.11;19.17
46638;BME280;32365;46.938;7.390;2023-06-14T13:12:40;94806.56;;;34.16;15.43
46638;BME280;32365;46.938;7.390;2023-06-14T13:15:07;94809.75;;;32.96;17.13
46638;BME280;32365;46.938;7.390;2023-06-14T13:17:34;94801.25;;;31.60;16.88
46638;BME280;32365;46.938;7.390;2023-06-14T13:20:04;94800.50;;;34.04;17.13
46638;BME280;32365;46.938;7.390;2023-06-14T13:22:31;94799.28;;;33.45;15.92
46638;BME280;32365;46.938;7.390;2023-06-14T13:24:58;94803.75;;;34.34;15.58
46638;BME280;32365;46.938;7.390;2023-06-14T13:27:25;94801.75;;;32.93;15.71
46638;BME280;32365;46.938;7.390;2023-06-14T13:29:53;94807.06;;;31.73;15.83
46638;BME280;32365;46.938;7.390;2023-06-14T13:32:20;94807.50;;;32.88;16.12
46638;BME280;32365;46.938;7.390;2023-06-14T13:34:47;94811.63;;;31.69;16.40
46638;BME280;32365;46.938;7.390;2023-06-14T13:37:14;94808.09;;;31.40;16.03
46638;BME280;32365;46.938;7.390;2023-06-14T13:39:41;94810.91;;;30.43;17.59
46638;BME280;32365;46.938;7.390;2023-06-14T13:42:08;94809.97;;;30.65;18.44
46638;BME280;32365;46.938;7.390;2023-06-14T13:44:35;94809.66;;;30.25;18.73
46638;BME280;32365;46.938;7.390;2023-06-14T13:47:03;94811.16;;;31.45;17.25
46638;BME280;32365;46.938;7.390;2023-06-14T13:49:29;94807.75;;;33.33;15.10
46638;BME280;32365;46.938;7.390;2023-06-14T13:51:56;94802.09;;;32.98;15.65
46638;BME280;32365;46.938;7.390;2023-06-14T13:54:23;94817.38;;;33.20;17.70
46638;BME280;32365;46.938;7.390;2023-06-14T13:56:49;94812.38;;;31.70;17.82
46638;BME280;32365;46.938;7.390;2023-06-14T13:59:16;94805.22;;;32.46;16.12
46638;BME280;32365;46.938;7.390;2023-06-14T14:01:42;94800.56;;;34.88;13.64
46638;BME280;32365;46.938;7.390;2023-06-14T14:04:10;94802.63;;;33.71;14.91
46638;BME280;32365;46.938;7.390;2023-06-14T14:06:37;94807.03;;;31.70;15.25
46638;BME280;32365;46.938;7.390;2023-06-14T14:09:03;94795.63;;;32.92;14.12
46638;BME280;32365;46.938;7.390;2023-06-14T14:11:30;94792.00;;;33.42;14.09
46638;BME280;32365;46.938;7.390;2023-06-14T14:13:58;94799.34;;;35.31;12.27
46638;BME280;32365;46.938;7.390;2023-06-14T14:16:25;94791.41;;;33.84;13.36
46638;BME280;32365;46.938;7.390;2023-06-14T14:18:51;94799.22;;;34.23;13.23
46638;BME280;32365;46.938;7.390;2023-06-14T14:21:19;94799.56;;;33.66;13.41
46638;BME280;32365;46.938;7.390;2023-06-14T14:23:46;94801.28;;;33.16;14.31
46638;BME280;32365;46.938;7.390;2023-06-14T14:26:12;94804.91;;;33.69;14.70
46638;BME280;32365;46.938;7.390;2023-06-14T14:28:39;94805.84;;;33.37;14.89
46638;BME280;32365;46.938;7.390;2023-06-14T14:31:05;94799.31;;;33.42;16.79
46638;BME280;32365;46.938;7.390;2023-06-14T14:33:32;94807.06;;;31.84;15.34
46638;BME280;32365;46.938;7.390;2023-06-14T14:36:00;94790.81;;;31.19;15.16
46638;BME280;32365;46.938;7.390;2023-06-14T14:38:30;94800.25;;;32.12;15.20
46638;BME280;32365;46.938;7.390;2023-06-14T14:40:56;94807.81;;;31.77;16.69
46638;BME280;32365;46.938;7.390;2023-06-14T14:43:23;94805.69;;;33.66;14.80
46638;BME280;32365;46.938;7.390;2023-06-14T14:45:49;94804.84;;;32.30;14.91
46638;BME280;32365;46.938;7.390;2023-06-14T14:48:16;94807.88;;;32.86;15.90
46638;BME280;32365;46.938;7.390;2023-06-14T14:50:42;94806.00;;;32.32;14.58
46638;BME280;32365;46.938;7.390;2023-06-14T14:53:09;94807.91;;;32.64;16.52
46638;BME280;32365;46.938;7.390;2023-06-14T14:55:37;94805.44;;;33.42;14.10
46638;BME280;32365;46.938;7.390;2023-06-14T14:58:04;94803.63;;;33.10;15.48
46638;BME280;32365;46.938;7.390;2023-06-14T15:00:32;94799.59;;;34.71;13.50
46638;BME280;32365;46.938;7.390;2023-06-14T15:02:58;94807.50;;;32.84;13.44
46638;BME280;32365;46.938;7.390;2023-06-14T15:05:24;94809.53;;;31.23;15.53
46638;BME280;32365;46.938;7.390;2023-06-14T15:07:52;94820.88;;;31.97;16.89
46638;BME280;32365;46.938;7.390;2023-06-14T15:10:18;94805.94;;;32.97;15.65
46638;BME280;32365;46.938;7.390;2023-06-14T15:12:46;94809.22;;;31.35;15.46
46638;BME280;32365;46.938;7.390;2023-06-14T15:15:13;94817.81;;;32.06;15.77
46638;BME280;32365;46.938;7.390;2023-06-14T15:17:39;94797.78;;;33.41;14.43
46638;BME280;32365;46.938;7.390;2023-06-14T15:20:07;94810.56;;;32.06;14.74
46638;BME280;32365;46.938;7.390;2023-06-14T15:22:33;94802.22;;;30.53;16.64
46638;BME280;32365;46.938;7.390;2023-06-14T15:25:00;94814.00;;;32.03;16.28
46638;BME280;32365;46.938;7.390;2023-06-14T15:27:26;94802.44;;;31.63;16.33
46638;BME280;32365;46.938;7.390;2023-06-14T15:29:54;94815.09;;;31.77;15.19
46638;BME280;32365;46.938;7.390;2023-06-14T15:32:21;94804.03;;;30.41;15.59
46638;BME280;32365;46.938;7.390;2023-06-14T15:34:47;94811.47;;;29.42;16.18
46638;BME280;32365;46.938;7.390;2023-06-14T15:37:14;94811.78;;;27.87;17.79
46638;BME280;32365;46.938;7.390;2023-06-14T15:39:40;94809.41;;;28.48;18.13
46638;BME280;32365;46.938;7.390;2023-06-14T15:42:07;94814.91;;;28.12;18.05
46638;BME280;32365;46.938;7.390;2023-06-14T15:44:33;94806.59;;;28.64;17.84
46638;BME280;32365;46.938;7.390;2023-06-14T15:47:02;94802.63;;;29.69;17.84
46638;BME280;32365;46.938;7.390;2023-06-14T15:49:29;94803.97;;;27.74;20.56
46638;BME280;32365;46.938;7.390;2023-06-14T15:51:56;94803.31;;;27.02;19.80
46638;BME280;32365;46.938;7.390;2023-06-14T15:54:22;94808.94;;;27.17;20.58
46638;BME280;32365;46.938;7.390;2023-06-14T15:56:49;94808.72;;;27.06;19.72
46638;BME280;32365;46.938;7.390;2023-06-14T15:59:15;94803.59;;;26.97;21.03
46638;BME280;32365;46.938;7.390;2023-06-14T16:01:41;94794.06;;;27.52;19.59
46638;BME280;32365;46.938;7.390;2023-06-14T16:04:09;94796.31;;;26.94;20.33
46638;BME280;32365;46.938;7.390;2023-06-14T16:06:36;94805.78;;;27.11;20.42
46638;BME280;32365;46.938;7.390;2023-06-14T16:09:02;94809.66;;;27.33;20.48
46638;BME280;32365;46.938;7.390;2023-06-14T16:11:29;94796.78;;;27.55;20.65
46638;BME280;32365;46.938;7.390;2023-06-14T16:13:55;94807.06;;;27.17;20.14
46638;BME280;32365;46.938;7.390;2023-06-14T16:16:22;94796.97;;;26.55;20.93
46638;BME280;32365;46.938;7.390;2023-06-14T16:18:48;94802.94;;;26.68;19.87
46638;BME280;32365;46.938;7.390;2023-06-14T16:21:16;94808.19;;;26.17;21.30
46638;BME280;32365;46.938;7.390;2023-06-14T16:23:43;94809.56;;;26.10;21.26
46638;BME280;32365;46.938;7.390;2023-06-14T16:26:11;94807.69;;;26.43;21.75
46638;BME280;32365;46.938;7.390;2023-06-14T16:28:38;94804.38;;;26.02;22.35
46638;BME280;32365;46.938;7.390;2023-06-14T16:31:07;94807.19;;;25.93;22.99
46638;BME280;32365;46.938;7.390;2023-06-14T16:33:33;94803.00;;;25.47;23.07
46638;BME280;32365;46.938;7.390;2023-06-14T16:36:00;94815.09;;;25.20;22.99
46638;BME280;32365;46.938;7.390;2023-06-14T16:38:28;94810.09;;;25.72;22.35
46638;BME280;32365;46.938;7.390;2023-06-14T16:40:54;94815.56;;;25.79;21.45
46638;BME280;32365;46.938;7.390;2023-06-14T16:43:21;94817.72;;;26.05;21.84
46638;BME280;32365;46.938;7.390;2023-06-14T16:45:47;94820.03;;;25.62;24.46
46638;BME280;32365;46.938;7.390;2023-06-14T16:48:14;94811.28;;;25.74;24.70
46638;BME280;32365;46.938;7.390;2023-06-14T16:50:40;94812.34;;;25.16;25.14
46638;BME280;32365;46.938;7.390;2023-06-14T16:53:07;94819.69;;;24.57;25.97
46638;BME280;32365;46.938;7.390;2023-06-14T16:55:34;94827.75;;;24.86;25.91
46638;BME280;32365;46.938;7.390;2023-06-14T16:58:01;94823.06;;;25.08;26.06
46638;BME280;32365;46.938;7.390;2023-06-14T17:00:28;94824.28;;;24.98;26.34
46638;BME280;32365;46.938;7.390;2023-06-14T17:02:54;94825.94;;;25.02;25.75
46638;BME280;32365;46.938;7.390;2023-06-14T17:05:21;94822.66;;;24.93;25.99
46638;BME280;32365;46.938;7.390;2023-06-14T17:07:48;94833.66;;;25.08;25.65
46638;BME280;32365;46.938;7.390;2023-06-14T17:10:14;94835.13;;;24.80;25.32
46638;BME280;32365;46.938;7.390;2023-06-14T17:12:42;94827.63;;;24.95;24.99
46638;BME280;32365;46.938;7.390;2023-06-14T17:15:09;94839.53;;;24.76;26.04
46638;BME280;32365;46.938;7.390;2023-06-14T17:17:36;94838.84;;;24.67;26.47
46638;BME280;32365;46.938;7.390;2023-06-14T17:20:03;94840.50;;;24.59;26.43
46638;BME280;32365;46.938;7.390;2023-06-14T17:22:30;94854.09;;;24.70;26.27
46638;BME280;32365;46.938;7.390;2023-06-14T17:24:57;94848.22;;;24.52;27.21
46638;BME280;32365;46.938;7.390;2023-06-14T17:27:23;94858.25;;;24.46;26.93
46638;BME280;32365;46.938;7.390;2023-06-14T17:29:51;94861.75;;;24.25;27.79
46638;BME280;32365;46.938;7.390;2023-06-14T17:32:18;94864.91;;;24.19;28.19
46638;BME280;32365;46.938;7.390;2023-06-14T17:34:44;94867.44;;;24.15;28.74
46638;BME280;32365;46.938;7.390;2023-06-14T17:37:11;94871.88;;;24.36;29.52
46638;BME280;32365;46.938;7.390;2023-06-14T17:39:37;94877.88;;;24.45;29.77
46638;BME280;32365;46.938;7.390;2023-06-14T17:42:06;94871.91;;;24.23;29.85
46638;BME280;32365;46.938;7.390;2023-06-14T17:44:33;94885.28;;;24.06;28.73
46638;BME280;32365;46.938;7.390;2023-06-14T17:47:01;94884.19;;;23.86;29.59
46638;BME280;32365;46.938;7.390;2023-06-14T17:49:27;94880.91;;;23.89;29.58
46638;BME280;32365;46.938;7.390;2023-06-14T17:51:54;94886.06;;;24.19;29.72
46638;BME280;32365;46.938;7.390;2023-06-14T17:54:20;94889.09;;;24.42;29.94
46638;BME280;32365;46.938;7.390;2023-06-14T17:56:47;94890.22;;;24.53;30.43
46638;BME280;32365;46.938;7.390;2023-06-14T17:59:13;94894.06;;;24.43;29.35
46638;BME280;32365;46.938;7.390;2023-06-14T18:01:40;94898.69;;;24.01;30.88
46638;BME280;32365;46.938;7.390;2023-06-14T18:04:08;94902.69;;;24.07;30.66
46638;BME280;32365;46.938;7.390;2023-06-14T18:06:34;94902.75;;;23.98;32.82
46638;BME280;32365;46.938;7.390;2023-06-14T18:09:01;94907.41;;;23.80;32.14
46638;BME280;32365;46.938;7.390;2023-06-14T18:11:28;94907.84;;;24.03;31.41
46638;BME280;32365;46.938;7.390;2023-06-14T18:13:55;94914.94;;;24.11;31.44
46638;BME280;32365;46.938;7.390;2023-06-14T18:16:22;94919.03;;;24.21;30.37
46638;BME280;32365;46.938;7.390;2023-06-14T18:18:48;94917.25;;;24.59;30.34
46638;BME280;32365;46.938;7.390;2023-06-14T18:21:17;94922.41;;;24.43;30.24
46638;BME280;32365;46.938;7.390;2023-06-14T18:23:46;94923.84;;;24.07;31.79
46638;BME280;32365;46.938;7.390;2023-06-14T18:26:18;94925.28;;;24.50;31.03
46638;BME280;32365;46.938;7.390;2023-06-14T18:28:45;94931.22;;;24.35;31.36
46638;BME280;32365;46.938;7.390;2023-06-14T18:31:11;94927.81;;;24.13;32.65
46638;BME280;32365;46.938;7.390;2023-06-14T18:33:38;94931.25;;;23.92;32.33
46638;BME280;32365;46.938;7.390;2023-06-14T18:36:04;94931.25;;;23.92;32.17
46638;BME280;32365;46.938;7.390;2023-06-14T18:38:32;94933.81;;;23.38;33.27
46638;BME280;32365;46.938;7.390;2023-06-14T18:40:59;94942.44;;;23.17;33.16
46638;BME280;32365;46.938;7.390;2023-06-14T18:43:25;94943.09;;;23.14;33.52
46638;BME280;32365;46.938;7.390;2023-06-14T18:45:53;94941.72;;;22.69;34.10
46638;BME280;32365;46.938;7.390;2023-06-14T18:48:19;94947.97;;;22.55;35.57
46638;BME280;32365;46.938;7.390;2023-06-14T18:50:45;94943.00;;;22.54;34.51
46638;BME280;32365;46.938;7.390;2023-06-14T18:53:12;94949.38;;;22.44;34.96
46638;BME280;32365;46.938;7.390;2023-06-14T18:55:40;94956.66;;;22.38;36.26
46638;BME280;32365;46.938;7.390;2023-06-14T18:58:08;94950.78;;;22.24;35.64
46638;BME280;32365;46.938;7.390;2023-06-14T19:00:35;94953.13;;;22.08;36.24
46638;BME280;32365;46.938;7.390;2023-06-14T19:03:02;94955.78;;;22.17;36.12
46638;BME280;32365;46.938;7.390;2023-06-14T19:05:29;94953.59;;;21.92;36.22
46638;BME280;32365;46.938;7.390;2023-06-14T19:07:56;94958.41;;;21.81;36.38
46638;BME280;32365;46.938;7.390;2023-06-14T19:10:22;94957.78;;;21.67;36.53
46638;BME280;32365;46.938;7.390;2023-06-14T19:12:50;94960.25;;;21.72;36.98
46638;BME280;32365;46.938;7.390;2023-06-14T19:15:16;94966.09;;;21.51;37.10
46638;BME280;32365;46.938;7.390;2023-06-14T19:17:53;94964.53;;;21.33;37.54
46638;BME280;32365;46.938;7.390;2023-06-14T19:20:19;94969.50;;;21.43;37.41
46638;BME280;32365;46.938;7.390;2023-06-14T19:22:46;94972.28;;;21.47;37.83
46638;BME280;32365;46.938;7.390;2023-06-14T19:25:12;94977.72;;;21.50;38.55
46638;BME280;32365;46.938;7.390;2023-06-14T19:27:39;94980.13;;;21.29;38.05
46638;BME280;32365;46.938;7.390;2023-06-14T19:30:07;94981.66;;;21.13;38.71
46638;BME280;32365;46.938;7.390;2023-06-14T19:32:35;94985.97;;;21.09;38.80
46638;BME280;32365;46.938;7.390;2023-06-14T19:35:01;94985.91;;;21.00;38.03
46638;BME280;32365;46.938;7.390;2023-06-14T19:37:28;94994.81;;;20.81;39.83
46638;BME280;32365;46.938;7.390;2023-06-14T19:39:56;94997.56;;;20.76;39.19
46638;BME280;32365;46.938;7.390;2023-06-14T19:42:22;94999.44;;;20.75;40.60
46638;BME280;32365;46.938;7.390;2023-06-14T19:44:49;95005.78;;;20.74;39.62
46638;BME280;32365;46.938;7.390;2023-06-14T19:47:17;95012.22;;;20.68;39.58